sensor_id;sensor_type;location;lat;lon;timestamp;temperature;humidity
24560;DHT22;12727;49.934;8.656;2024-01-16T00:01:55;0.00;99.90
24560;DHT22;12727;49.934;8.656;2024-01-16T00:04:21;0.00;99.90
24560;DHT22;12727;49.934;8.656;2024-01-16T00:06:46;0.00;99.90
24560;DHT22;12727;49.934;8.656;2024-01-16T00:09:12;0.00;99.90
24560;DHT22;12727;49.934;8.656;2024-01-16T00:11:40;0.00;99.90
24560;DHT22;12727;49.934;8.656;2024-01-16T00:14:06;0.00;99.90
24560;DHT22;12727;49.934;8.656;2024-01-16T00:16:32;0.00;99.90
24560;DHT22;12727;49.934;8.656;2024-01-16T00:18:57;-0.10;99.90
24560;DHT22;12727;49.934;8.656;2024-01-16T00:21:23;-0.10;99.90
24560;DHT22;12727;49.934;8.656;2024-01-16T00:23:48;-0.10;99.90
24560;DHT22;12727;49.934;8.656;2024-01-16T00:26:23;-0.10;99.90
24560;DHT22;12727;49.934;8.656;2024-01-16T00:28:48;-0.10;99.90
24560;DHT22;12727;49.934;8.656;2024-01-16T00:31:14;0.00;99.90
24560;DHT22;12727;49.934;8.656;2024-01-16T00:33:39;-0.20;99.90
24560;DHT22;12727;49.934;8.656;2024-01-16T00:36:05;-0.20;99.90
24560;DHT22;12727;49.934;8.656;2024-01-16T00:38:32;-0.20;99.90
24560;DHT22;12727;49.934;8.656;2024-01-16T00:40:58;-0.20;99.90
24560;DHT22;12727;49.934;8.656;2024-01-16T00:43:24;0.00;99.90
24560;DHT22;12727;49.934;8.656;2024-01-16T00:45:50;0.10;99.90
24560;DHT22;12727;49.934;8.656;2024-01-16T00:48:15;0.10;99.90
24560;DHT22;12727;49.934;8.656;2024-01-16T00:50:41;0.20;99.90
24560;DHT22;12727;49.934;8.656;2024-01-16T00:53:06;0.30;99.90
24560;DHT22;12727;49.934;8.656;2024-01-16T00:55:32;0.30;99.90
24560;DHT22;12727;49.934;8.656;2024-01-16T00:57:57;0.30;99.90
24560;DHT22;12727;49.934;8.656;2024-01-16T01:00:23;0.20;99.90
24560;DHT22;12727;49.934;8.656;2024-01-16T01:02:48;0.20;99.90
24560;DHT22;12727;49.934;8.656;2024-01-16T01:05:14;0.00;99.90
24560;DHT22;12727;49.934;8.656;2024-01-16T01:07:39;0.00;99.90
24560;DHT22;12727;49.934;8.656;2024-01-16T01:10:05;-0.10;99.90
24560;DHT22;12727;49.934;8.656;2024-01-16T01:12:30;-0.10;99.90
24560;DHT22;12727;49.934;8.656;2024-01-16T01:14:56;-0.10;99.90
24560;DHT22;12727;49.934;8.656;2024-01-16T01:17:21;0.10;99.90
24560;DHT22;12727;49.934;8.656;2024-01-16T01:19:47;0.10;99.90
24560;DHT22;12727;49.934;8.656;2024-01-16T01:22:12;-0.10;99.90
24560;DHT22;12727;49.934;8.656;2024-01-16T01:24:38;-0.30;99.90
24560;DHT22;12727;49.934;8.656;2024-01-16T01:27:03;-0.40;99.90
24560;DHT22;12727;49.934;8.656;2024-01-16T01:29:29;-0.50;99.90
24560;DHT22;12727;49.934;8.656;2024-01-16T01:31:54;-0.40;99.90
24560;DHT22;12727;49.934;8.656;2024-01-16T01:34:20;-0.40;99.90
24560;DHT22;12727;49.934;8.656;2024-01-16T01:36:45;-0.40;99.90
24560;DHT22;12727;49.934;8.656;2024-01-16T01:39:11;-0.50;99.90
24560;DHT22;12727;49.934;8.656;2024-01-16T01:41:37;-0.60;99.90
24560;DHT22;12727;49.934;8.656;2024-01-16T01:44:02;-0.60;99.90
24560;DHT22;12727;49.934;8.656;2024-01-16T01:46:28;-0.50;99.90
24560;DHT22;12727;49.934;8.656;2024-01-16T01:48:54;-0.60;99.90
24560;DHT22;12727;49.934;8.656;2024-01-16T01:51:20;-0.60;99.90
24560;DHT22;12727;49.934;8.656;2024-01-16T01:53:47;-0.50;99.90
24560;DHT22;12727;49.934;8.656;2024-01-16T01:56:19;-0.50;99.90
24560;DHT22;12727;49.934;8.656;2024-01-16T01:58:47;-0.70;99.90
24560;DHT22;12727;49.934;8.656;2024-01-16T02:01:13;-0.70;99.90
24560;DHT22;12727;49.934;8.656;2024-01-16T02:03:43;-0.80;99.90
24560;DHT22;12727;49.934;8.656;2024-01-16T02:06:09;-0.90;99.90
24560;DHT22;12727;49.934;8.656;2024-01-16T02:08:35;-0.90;99.90
24560;DHT22;12727;49.934;8.656;2024-01-16T02:11:00;-0.90;99.90
24560;DHT22;12727;49.934;8.656;2024-01-16T02:13:26;-0.90;99.90
24560;DHT22;12727;49.934;8.656;2024-01-16T02:15:51;-0.90;99.90
24560;DHT22;12727;49.934;8.656;2024-01-16T02:18:17;-0.90;99.90
24560;DHT22;12727;49.934;8.656;2024-01-16T02:20:45;-0.90;99.90
24560;DHT22;12727;49.934;8.656;2024-01-16T02:23:13;-0.90;99.90
24560;DHT22;12727;49.934;8.656;2024-01-16T02:25:39;-0.90;99.90
24560;DHT22;12727;49.934;8.656;2024-01-16T02:28:05;-0.90;99.90
24560;DHT22;12727;49.934;8.656;2024-01-16T02:30:30;-0.90;99.90
24560;DHT22;12727;49.934;8.656;2024-01-16T02:32:56;-0.80;99.90
24560;DHT22;12727;49.934;8.656;2024-01-16T02:35:21;-0.70;99.90
24560;DHT22;12727;49.934;8.656;2024-01-16T02:37:47;-0.70;99.90
24560;DHT22;12727;49.934;8.656;2024-01-16T02:40:12;-0.70;99.90
24560;DHT22;12727;49.934;8.656;2024-01-16T02:42:38;-0.70;99.90
24560;DHT22;12727;49.934;8.656;2024-01-16T02:45:04;-0.60;99.90
24560;DHT22;12727;49.934;8.656;2024-01-16T02:47:30;-0.60;99.90
24560;DHT22;12727;49.934;8.656;2024-01-16T02:49:55;-0.70;99.90
24560;DHT22;12727;49.934;8.656;2024-01-16T02:52:21;-0.70;99.90
24560;DHT22;12727;49.934;8.656;2024-01-16T02:54:46;-0.70;99.90
24560;DHT22;12727;49.934;8.656;2024-01-16T02:57:12;-0.50;99.90
24560;DHT22;12727;49.934;8.656;2024-01-16T02:59:37;-0.40;99.90
24560;DHT22;12727;49.934;8.656;2024-01-16T03:02:03;-0.40;99.90
24560;DHT22;12727;49.934;8.656;2024-01-16T03:04:29;-0.30;99.90
24560;DHT22;12727;49.934;8.656;2024-01-16T03:06:54;-0.30;99.90
24560;DHT22;12727;49.934;8.656;2024-01-16T03:09:20;-0.30;99.90
24560;DHT22;12727;49.934;8.656;2024-01-16T03:11:46;-0.40;99.90
24560;DHT22;12727;49.934;8.656;2024-01-16T03:14:12;-0.30;99.90
24560;DHT22;12727;49.934;8.656;2024-01-16T03:16:39;-0.40;99.90
24560;DHT22;12727;49.934;8.656;2024-01-16T03:19:04;-0.40;99.90
24560;DHT22;12727;49.934;8.656;2024-01-16T03:21:30;-0.40;99.90
24560;DHT22;12727;49.934;8.656;2024-01-16T03:23:55;-0.40;99.90
24560;DHT22;12727;49.934;8.656;2024-01-16T03:26:21;-0.60;99.90
24560;DHT22;12727;49.934;8.656;2024-01-16T03:28:46;-0.70;99.90
24560;DHT22;12727;49.934;8.656;2024-01-16T03:31:15;-0.70;99.90
24560;DHT22;12727;49.934;8.656;2024-01-16T03:33:40;-0.70;99.90
24560;DHT22;12727;49.934;8.656;2024-01-16T03:36:08;-0.70;99.90
24560;DHT22;12727;49.934;8.656;2024-01-16T03:38:37;-0.80;99.90
24560;DHT22;12727;49.934;8.656;2024-01-16T03:41:03;-0.80;99.90
24560;DHT22;12727;49.934;8.656;2024-01-16T03:43:29;-0.80;99.90
24560;DHT22;12727;49.934;8.656;2024-01-16T03:45:57;-0.70;99.90
24560;DHT22;12727;49.934;8.656;2024-01-16T03:48:22;-0.60;99.90
24560;DHT22;12727;49.934;8.656;2024-01-16T03:50:47;-0.60;99.90
24560;DHT22;12727;49.934;8.656;2024-01-16T03:53:13;-0.50;99.90
24560;DHT22;12727;49.934;8.656;2024-01-16T03:55:38;-0.50;99.90
24560;DHT22;12727;49.934;8.656;2024-01-16T03:58:04;-0.60;99.90
24560;DHT22;12727;49.934;8.656;2024-01-16T04:00:29;-0.70;99.90
24560;DHT22;12727;49.934;8.656;2024-01-16T04:02:55;-0.80;99.90
24560;DHT22;12727;49.934;8.656;2024-01-16T04:05:20;-1.00;99.90
24560;DHT22;12727;49.934;8.656;2024-01-16T04:07:46;-1.00;99.90
24560;DHT22;12727;49.934;8.656;2024-01-16T04:10:11;-1.00;99.90
24560;DHT22;12727;49.934;8.656;2024-01-16T04:12:37;-1.10;99.90
24560;DHT22;12727;49.934;8.656;2024-01-16T04:15:02;-1.00;99.90
24560;DHT22;12727;49.934;8.656;2024-01-16T04:17:28;-0.90;99.90
24560;DHT22;12727;49.934;8.656;2024-01-16T04:19:53;-0.80;99.90
24560;DHT22;12727;49.934;8.656;2024-01-16T04:22:19;-0.60;99.90
24560;DHT22;12727;49.934;8.656;2024-01-16T04:24:44;-0.50;99.90
24560;DHT22;12727;49.934;8.656;2024-01-16T04:27:10;-0.60;99.90
24560;DHT22;12727;49.934;8.656;2024-01-16T04:29:36;-0.70;99.90
24560;DHT22;12727;49.934;8.656;2024-01-16T04:32:01;-0.90;99.90
24560;DHT22;12727;49.934;8.656;2024-01-16T04:34:27;-1.00;99.90
24560;DHT22;12727;49.934;8.656;2024-01-16T04:36:52;-1.00;99.90
24560;DHT22;12727;49.934;8.656;2024-01-16T04:39:18;-0.90;99.90
24560;DHT22;12727;49.934;8.656;2024-01-16T04:41:43;-0.80;99.90
24560;DHT22;12727;49.934;8.656;2024-01-16T04:44:09;-0.70;99.90
24560;DHT22;12727;49.934;8.656;2024-01-16T04:46:34;-0.70;99.90
24560;DHT22;12727;49.934;8.656;2024-01-16T04:49:00;-0.60;99.90
24560;DHT22;12727;49.934;8.656;2024-01-16T04:51:25;-0.60;99.90
24560;DHT22;12727;49.934;8.656;2024-01-16T04:53:51;-0.90;99.90
24560;DHT22;12727;49.934;8.656;2024-01-16T04:56:16;-0.90;99.90
24560;DHT22;12727;49.934;8.656;2024-01-16T04:58:41;-1.00;99.90
24560;DHT22;12727;49.934;8.656;2024-01-16T05:01:07;-1.10;99.90
24560;DHT22;12727;49.934;8.656;2024-01-16T05:03:33;-1.10;99.90
24560;DHT22;12727;49.934;8.656;2024-01-16T05:05:58;-1.10;99.90
24560;DHT22;12727;49.934;8.656;2024-01-16T05:08:24;-1.10;99.90
24560;DHT22;12727;49.934;8.656;2024-01-16T05:10:49;-1.10;99.90
24560;DHT22;12727;49.934;8.656;2024-01-16T05:13:15;-1.10;99.90
24560;DHT22;12727;49.934;8.656;2024-01-16T05:15:40;-1.10;99.90
24560;DHT22;12727;49.934;8.656;2024-01-16T05:18:07;-1.10;99.90
24560;DHT22;12727;49.934;8.656;2024-01-16T05:20:32;-1.20;99.90
24560;DHT22;12727;49.934;8.656;2024-01-16T05:22:58;-1.20;99.90
24560;DHT22;12727;49.934;8.656;2024-01-16T05:25:23;-1.20;99.90
24560;DHT22;12727;49.934;8.656;2024-01-16T05:27:49;-1.20;99.90
24560;DHT22;12727;49.934;8.656;2024-01-16T05:30:17;-1.20;99.90
24560;DHT22;12727;49.934;8.656;2024-01-16T05:32:43;-1.20;99.90
24560;DHT22;12727;49.934;8.656;2024-01-16T05:35:08;-1.20;99.90
24560;DHT22;12727;49.934;8.656;2024-01-16T05:37:35;-1.20;99.90
24560;DHT22;12727;49.934;8.656;2024-01-16T05:40:01;-1.20;99.90
24560;DHT22;12727;49.934;8.656;2024-01-16T05:42:29;-1.30;99.90
24560;DHT22;12727;49.934;8.656;2024-01-16T05:44:54;-1.30;99.90
24560;DHT22;12727;49.934;8.656;2024-01-16T05:47:20;-1.20;99.90
24560;DHT22;12727;49.934;8.656;2024-01-16T05:49:45;-1.20;99.90
24560;DHT22;12727;49.934;8.656;2024-01-16T05:52:11;-1.20;99.90
24560;DHT22;12727;49.934;8.656;2024-01-16T05:54:36;-1.30;99.90
24560;DHT22;12727;49.934;8.656;2024-01-16T05:57:02;-1.20;99.90
24560;DHT22;12727;49.934;8.656;2024-01-16T05:59:28;-1.30;99.90
24560;DHT22;12727;49.934;8.656;2024-01-16T06:01:53;-1.30;99.90
24560;DHT22;12727;49.934;8.656;2024-01-16T06:04:18;-1.30;99.90
24560;DHT22;12727;49.934;8.656;2024-01-16T06:06:44;-1.40;99.90
24560;DHT22;12727;49.934;8.656;2024-01-16T06:09:12;-1.40;99.90
24560;DHT22;12727;49.934;8.656;2024-01-16T06:11:39;-1.40;99.90
24560;DHT22;12727;49.934;8.656;2024-01-16T06:14:09;-1.40;99.90
24560;DHT22;12727;49.934;8.656;2024-01-16T06:16:35;-1.40;99.90
24560;DHT22;12727;49.934;8.656;2024-01-16T06:19:01;-1.50;99.90
24560;DHT22;12727;49.934;8.656;2024-01-16T06:21:26;-1.40;99.90
24560;DHT22;12727;49.934;8.656;2024-01-16T06:23:52;-1.40;99.90
24560;DHT22;12727;49.934;8.656;2024-01-16T06:26:18;-1.50;99.90
24560;DHT22;12727;49.934;8.656;2024-01-16T06:28:43;-1.50;99.90
24560;DHT22;12727;49.934;8.656;2024-01-16T06:31:09;-1.50;99.90
24560;DHT22;12727;49.934;8.656;2024-01-16T06:33:34;-1.50;99.90
24560;DHT22;12727;49.934;8.656;2024-01-16T06:36:00;-1.50;99.90
24560;DHT22;12727;49.934;8.656;2024-01-16T06:38:26;-1.60;99.90
24560;DHT22;12727;49.934;8.656;2024-01-16T06:40:52;-1.60;99.90
24560;DHT22;12727;49.934;8.656;2024-01-16T06:43:17;-1.60;99.90
24560;DHT22;12727;49.934;8.656;2024-01-16T06:45:43;-1.60;99.90
24560;DHT22;12727;49.934;8.656;2024-01-16T06:48:09;-1.60;99.90
24560;DHT22;12727;49.934;8.656;2024-01-16T06:50:35;-1.50;99.90
24560;DHT22;12727;49.934;8.656;2024-01-16T06:53:01;-1.40;99.90
24560;DHT22;12727;49.934;8.656;2024-01-16T06:55:26;-1.20;99.90
24560;DHT22;12727;49.934;8.656;2024-01-16T06:57:51;-1.30;99.90
24560;DHT22;12727;49.934;8.656;2024-01-16T07:00:17;-1.30;99.90
24560;DHT22;12727;49.934;8.656;2024-01-16T07:02:43;-1.30;99.90
24560;DHT22;12727;49.934;8.656;2024-01-16T07:05:09;-1.40;99.90
24560;DHT22;12727;49.934;8.656;2024-01-16T07:07:34;-1.40;99.90
24560;DHT22;12727;49.934;8.656;2024-01-16T07:10:00;-1.40;99.90
24560;DHT22;12727;49.934;8.656;2024-01-16T07:12:25;-1.30;99.90
24560;DHT22;12727;49.934;8.656;2024-01-16T07:14:50;-1.30;99.90
24560;DHT22;12727;49.934;8.656;2024-01-16T07:17:16;-1.20;99.90
24560;DHT22;12727;49.934;8.656;2024-01-16T07:19:41;-1.10;99.90
24560;DHT22;12727;49.934;8.656;2024-01-16T07:22:07;-1.10;99.90
24560;DHT22;12727;49.934;8.656;2024-01-16T07:24:32;-1.10;99.90
24560;DHT22;12727;49.934;8.656;2024-01-16T07:26:58;-1.20;99.90
24560;DHT22;12727;49.934;8.656;2024-01-16T07:29:23;-1.20;99.90
24560;DHT22;12727;49.934;8.656;2024-01-16T07:31:49;-1.20;99.90
24560;DHT22;12727;49.934;8.656;2024-01-16T07:34:14;-1.30;99.90
24560;DHT22;12727;49.934;8.656;2024-01-16T07:36:45;-1.30;99.90
24560;DHT22;12727;49.934;8.656;2024-01-16T07:39:10;-1.20;99.90
24560;DHT22;12727;49.934;8.656;2024-01-16T07:41:36;-1.20;99.90
24560;DHT22;12727;49.934;8.656;2024-01-16T07:44:01;-1.20;99.90
24560;DHT22;12727;49.934;8.656;2024-01-16T07:46:27;-1.10;99.90
24560;DHT22;12727;49.934;8.656;2024-01-16T07:48:53;-1.00;99.90
24560;DHT22;12727;49.934;8.656;2024-01-16T07:51:19;-0.80;99.90
24560;DHT22;12727;49.934;8.656;2024-01-16T07:53:45;-0.80;99.90
24560;DHT22;12727;49.934;8.656;2024-01-16T07:56:10;-0.80;99.90
24560;DHT22;12727;49.934;8.656;2024-01-16T07:58:36;-0.80;99.90
24560;DHT22;12727;49.934;8.656;2024-01-16T08:01:02;-0.90;99.90
24560;DHT22;12727;49.934;8.656;2024-01-16T08:03:28;-0.90;99.90
24560;DHT22;12727;49.934;8.656;2024-01-16T08:05:53;-0.90;99.90
24560;DHT22;12727;49.934;8.656;2024-01-16T08:08:19;-0.90;99.90
24560;DHT22;12727;49.934;8.656;2024-01-16T08:10:44;-1.00;99.90
24560;DHT22;12727;49.934;8.656;2024-01-16T08:13:10;-0.90;99.90
24560;DHT22;12727;49.934;8.656;2024-01-16T08:15:35;-0.90;99.90
24560;DHT22;12727;49.934;8.656;2024-01-16T08:18:01;-0.90;99.90
24560;DHT22;12727;49.934;8.656;2024-01-16T08:20:26;-0.90;99.90
24560;DHT22;12727;49.934;8.656;2024-01-16T08:22:52;-0.90;99.90
24560;DHT22;12727;49.934;8.656;2024-01-16T08:25:18;-0.90;99.90
24560;DHT22;12727;49.934;8.656;2024-01-16T08:27:44;-0.90;99.90
24560;DHT22;12727;49.934;8.656;2024-01-16T08:30:09;-0.80;99.90
24560;DHT22;12727;49.934;8.656;2024-01-16T08:32:36;-0.80;99.90
24560;DHT22;12727;49.934;8.656;2024-01-16T08:35:02;-0.80;99.90
24560;DHT22;12727;49.934;8.656;2024-01-16T08:37:28;-0.80;99.90
24560;DHT22;12727;49.934;8.656;2024-01-16T08:39:53;-0.80;99.90
24560;DHT22;12727;49.934;8.656;2024-01-16T08:42:19;-0.70;99.90
24560;DHT22;12727;49.934;8.656;2024-01-16T08:44:44;-0.70;99.90
24560;DHT22;12727;49.934;8.656;2024-01-16T08:47:09;-0.70;99.90
24560;DHT22;12727;49.934;8.656;2024-01-16T08:49:35;-0.60;99.90
24560;DHT22;12727;49.934;8.656;2024-01-16T08:52:03;-0.50;99.90
24560;DHT22;12727;49.934;8.656;2024-01-16T08:54:29;-0.50;99.90
24560;DHT22;12727;49.934;8.656;2024-01-16T08:56:54;-0.40;99.90
24560;DHT22;12727;49.934;8.656;2024-01-16T08:59:20;-0.30;99.90
24560;DHT22;12727;49.934;8.656;2024-01-16T09:01:45;-0.30;99.90
24560;DHT22;12727;49.934;8.656;2024-01-16T09:04:11;-0.20;99.90
24560;DHT22;12727;49.934;8.656;2024-01-16T09:06:37;-0.20;99.90
24560;DHT22;12727;49.934;8.656;2024-01-16T09:09:02;-0.20;99.90
24560;DHT22;12727;49.934;8.656;2024-01-16T09:11:30;-0.20;99.90
24560;DHT22;12727;49.934;8.656;2024-01-16T09:13:56;-0.20;99.90
24560;DHT22;12727;49.934;8.656;2024-01-16T09:16:21;-0.20;99.90
24560;DHT22;12727;49.934;8.656;2024-01-16T09:18:46;-0.10;99.90
24560;DHT22;12727;49.934;8.656;2024-01-16T09:21:12;-0.10;99.90
24560;DHT22;12727;49.934;8.656;2024-01-16T09:23:38;-0.10;99.90
24560;DHT22;12727;49.934;8.656;2024-01-16T09:26:03;-0.10;99.90
24560;DHT22;12727;49.934;8.656;2024-01-16T09:28:29;0.00;99.90
24560;DHT22;12727;49.934;8.656;2024-01-16T09:30:54;0.00;99.90
24560;DHT22;12727;49.934;8.656;2024-01-16T09:33:22;0.10;99.90
24560;DHT22;12727;49.934;8.656;2024-01-16T09:35:47;0.10;99.90
24560;DHT22;12727;49.934;8.656;2024-01-16T09:38:13;0.10;99.90
24560;DHT22;12727;49.934;8.656;2024-01-16T09:40:38;0.10;99.90
24560;DHT22;12727;49.934;8.656;2024-01-16T09:43:04;0.10;99.90
24560;DHT22;12727;49.934;8.656;2024-01-16T09:45:29;0.10;99.90
24560;DHT22;12727;49.934;8.656;2024-01-16T09:47:56;0.20;99.90
24560;DHT22;12727;49.934;8.656;2024-01-16T09:50:22;0.20;99.90
24560;DHT22;12727;49.934;8.656;2024-01-16T09:52:48;0.20;99.90
24560;DHT22;12727;49.934;8.656;2024-01-16T09:55:13;0.30;99.90
24560;DHT22;12727;49.934;8.656;2024-01-16T09:57:39;0.40;99.90
24560;DHT22;12727;49.934;8.656;2024-01-16T10:00:10;0.50;99.90
24560;DHT22;12727;49.934;8.656;2024-01-16T10:02:40;0.60;99.90
24560;DHT22;12727;49.934;8.656;2024-01-16T10:05:07;0.60;99.90
24560;DHT22;12727;49.934;8.656;2024-01-16T10:07:33;0.70;99.90
24560;DHT22;12727;49.934;8.656;2024-01-16T10:10:00;0.70;99.90
24560;DHT22;12727;49.934;8.656;2024-01-16T10:12:25;0.80;99.90
24560;DHT22;12727;49.934;8.656;2024-01-16T10:14:51;0.80;99.90
24560;DHT22;12727;49.934;8.656;2024-01-16T10:17:17;0.90;99.90
24560;DHT22;12727;49.934;8.656;2024-01-16T10:19:52;1.00;99.90
24560;DHT22;12727;49.934;8.656;2024-01-16T10:22:21;1.20;99.90
24560;DHT22;12727;49.934;8.656;2024-01-16T10:24:48;1.30;99.90
24560;DHT22;12727;49.934;8.656;2024-01-16T10:27:15;1.10;99.90
24560;DHT22;12727;49.934;8.656;2024-01-16T10:29:54;1.10;99.90
24560;DHT22;12727;49.934;8.656;2024-01-16T10:32:35;1.10;99.90
24560;DHT22;12727;49.934;8.656;2024-01-16T10:35:08;1.20;99.90
24560;DHT22;12727;49.934;8.656;2024-01-16T10:37:52;1.20;99.90
24560;DHT22;12727;49.934;8.656;2024-01-16T10:40:19;1.30;99.90
24560;DHT22;12727;49.934;8.656;2024-01-16T10:42:45;1.50;99.90
24560;DHT22;12727;49.934;8.656;2024-01-16T10:45:18;1.50;99.90
24560;DHT22;12727;49.934;8.656;2024-01-16T10:47:47;1.60;99.90
24560;DHT22;12727;49.934;8.656;2024-01-16T10:50:13;1.60;99.90
24560;DHT22;12727;49.934;8.656;2024-01-16T10:52:46;1.60;99.90
24560;DHT22;12727;49.934;8.656;2024-01-16T10:55:21;1.60;99.90
24560;DHT22;12727;49.934;8.656;2024-01-16T10:57:48;1.60;99.90
24560;DHT22;12727;49.934;8.656;2024-01-16T11:00:13;1.50;99.90
24560;DHT22;12727;49.934;8.656;2024-01-16T11:02:43;1.40;99.90
24560;DHT22;12727;49.934;8.656;2024-01-16T11:05:10;1.30;99.90
24560;DHT22;12727;49.934;8.656;2024-01-16T11:07:37;1.30;99.90
24560;DHT22;12727;49.934;8.656;2024-01-16T11:10:02;1.20;99.90
24560;DHT22;12727;49.934;8.656;2024-01-16T11:12:29;1.30;99.90
24560;DHT22;12727;49.934;8.656;2024-01-16T11:14:54;1.30;99.90
24560;DHT22;12727;49.934;8.656;2024-01-16T11:17:21;1.30;99.90
24560;DHT22;12727;49.934;8.656;2024-01-16T11:19:47;1.30;99.90
24560;DHT22;12727;49.934;8.656;2024-01-16T11:22:13;1.30;99.90
24560;DHT22;12727;49.934;8.656;2024-01-16T11:24:39;1.40;99.90
24560;DHT22;12727;49.934;8.656;2024-01-16T11:27:05;1.50;99.90
24560;DHT22;12727;49.934;8.656;2024-01-16T11:31:56;1.80;99.90
24560;DHT22;12727;49.934;8.656;2024-01-16T11:37:12;2.00;99.90
24560;DHT22;12727;49.934;8.656;2024-01-16T11:39:38;2.10;99.90
24560;DHT22;12727;49.934;8.656;2024-01-16T11:42:04;2.20;99.90
24560;DHT22;12727;49.934;8.656;2024-01-16T11:44:43;2.20;99.90
24560;DHT22;12727;49.934;8.656;2024-01-16T11:47:09;2.30;99.90
24560;DHT22;12727;49.934;8.656;2024-01-16T11:49:39;2.30;99.90
24560;DHT22;12727;49.934;8.656;2024-01-16T11:52:05;2.40;99.90
24560;DHT22;12727;49.934;8.656;2024-01-16T11:54:30;2.40;99.90
24560;DHT22;12727;49.934;8.656;2024-01-16T12:02:10;2.20;99.90
24560;DHT22;12727;49.934;8.656;2024-01-16T12:04:37;2.30;99.90
24560;DHT22;12727;49.934;8.656;2024-01-16T12:07:02;2.40;99.90
24560;DHT22;12727;49.934;8.656;2024-01-16T12:09:28;2.40;99.90
24560;DHT22;12727;49.934;8.656;2024-01-16T12:11:57;2.30;99.90
24560;DHT22;12727;49.934;8.656;2024-01-16T12:14:45;2.20;99.90
24560;DHT22;12727;49.934;8.656;2024-01-16T12:17:15;2.10;99.90
24560;DHT22;12727;49.934;8.656;2024-01-16T12:19:43;2.20;99.90
24560;DHT22;12727;49.934;8.656;2024-01-16T12:22:09;2.30;99.90
24560;DHT22;12727;49.934;8.656;2024-01-16T12:24:35;2.40;99.90
24560;DHT22;12727;49.934;8.656;2024-01-16T12:27:01;2.50;99.90
24560;DHT22;12727;49.934;8.656;2024-01-16T12:29:26;2.40;99.90
24560;DHT22;12727;49.934;8.656;2024-01-16T12:32:04;2.40;99.90
24560;DHT22;12727;49.934;8.656;2024-01-16T12:34:29;2.50;99.90
24560;DHT22;12727;49.934;8.656;2024-01-16T12:37:03;2.50;99.90
24560;DHT22;12727;49.934;8.656;2024-01-16T12:39:29;2.40;99.90
24560;DHT22;12727;49.934;8.656;2024-01-16T12:41:54;2.40;99.90
24560;DHT22;12727;49.934;8.656;2024-01-16T12:44:20;2.30;99.90
24560;DHT22;12727;49.934;8.656;2024-01-16T12:46:54;2.30;99.90
24560;DHT22;12727;49.934;8.656;2024-01-16T12:49:21;2.20;99.90
24560;DHT22;12727;49.934;8.656;2024-01-16T12:51:47;2.10;99.90
24560;DHT22;12727;49.934;8.656;2024-01-16T12:54:13;2.00;99.90
24560;DHT22;12727;49.934;8.656;2024-01-16T12:56:39;1.90;99.90
24560;DHT22;12727;49.934;8.656;2024-01-16T12:59:09;1.90;99.90
24560;DHT22;12727;49.934;8.656;2024-01-16T13:01:35;1.90;99.90
24560;DHT22;12727;49.934;8.656;2024-01-16T13:04:04;2.00;99.90
24560;DHT22;12727;49.934;8.656;2024-01-16T13:06:29;1.90;99.90
24560;DHT22;12727;49.934;8.656;2024-01-16T13:09:03;2.10;99.90
24560;DHT22;12727;49.934;8.656;2024-01-16T13:11:31;2.20;99.90
24560;DHT22;12727;49.934;8.656;2024-01-16T13:14:02;2.40;99.90
24560;DHT22;12727;49.934;8.656;2024-01-16T13:16:29;2.50;99.90
24560;DHT22;12727;49.934;8.656;2024-01-16T13:19:00;2.50;99.90
24560;DHT22;12727;49.934;8.656;2024-01-16T13:21:27;2.50;99.90
24560;DHT22;12727;49.934;8.656;2024-01-16T13:23:52;2.60;99.90
24560;DHT22;12727;49.934;8.656;2024-01-16T13:26:18;2.60;99.90
24560;DHT22;12727;49.934;8.656;2024-01-16T13:28:43;2.60;99.90
24560;DHT22;12727;49.934;8.656;2024-01-16T13:31:09;2.70;99.90
24560;DHT22;12727;49.934;8.656;2024-01-16T13:33:34;2.80;99.90
24560;DHT22;12727;49.934;8.656;2024-01-16T13:35:59;2.90;99.90
24560;DHT22;12727;49.934;8.656;2024-01-16T13:38:25;2.80;99.90
24560;DHT22;12727;49.934;8.656;2024-01-16T13:40:50;2.60;99.90
24560;DHT22;12727;49.934;8.656;2024-01-16T13:43:16;2.50;99.90
24560;DHT22;12727;49.934;8.656;2024-01-16T13:45:41;2.50;99.90
24560;DHT22;12727;49.934;8.656;2024-01-16T13:48:07;2.40;99.90
24560;DHT22;12727;49.934;8.656;2024-01-16T13:50:33;2.30;99.90
24560;DHT22;12727;49.934;8.656;2024-01-16T13:53:02;2.20;99.90
24560;DHT22;12727;49.934;8.656;2024-01-16T13:55:27;2.10;99.90
24560;DHT22;12727;49.934;8.656;2024-01-16T13:57:53;2.00;99.90
24560;DHT22;12727;49.934;8.656;2024-01-16T14:00:19;1.90;99.90
24560;DHT22;12727;49.934;8.656;2024-01-16T14:02:45;1.80;99.90
24560;DHT22;12727;49.934;8.656;2024-01-16T14:05:11;1.70;99.90
24560;DHT22;12727;49.934;8.656;2024-01-16T14:07:37;1.60;99.90
24560;DHT22;12727;49.934;8.656;2024-01-16T14:10:09;1.60;99.90
24560;DHT22;12727;49.934;8.656;2024-01-16T14:12:37;1.50;99.90
24560;DHT22;12727;49.934;8.656;2024-01-16T14:15:03;1.50;99.90
24560;DHT22;12727;49.934;8.656;2024-01-16T14:17:41;1.40;99.90
24560;DHT22;12727;49.934;8.656;2024-01-16T14:20:06;1.40;99.90
24560;DHT22;12727;49.934;8.656;2024-01-16T14:22:36;1.40;99.90
24560;DHT22;12727;49.934;8.656;2024-01-16T14:25:03;1.50;99.90
24560;DHT22;12727;49.934;8.656;2024-01-16T14:27:30;1.50;99.90
24560;DHT22;12727;49.934;8.656;2024-01-16T14:29:55;1.40;99.90
24560;DHT22;12727;49.934;8.656;2024-01-16T14:32:20;1.30;99.90
24560;DHT22;12727;49.934;8.656;2024-01-16T14:34:46;1.40;99.90
24560;DHT22;12727;49.934;8.656;2024-01-16T14:37:11;1.40;99.90
24560;DHT22;12727;49.934;8.656;2024-01-16T14:39:38;1.50;99.90
24560;DHT22;12727;49.934;8.656;2024-01-16T14:42:04;1.60;99.90
24560;DHT22;12727;49.934;8.656;2024-01-16T14:44:30;1.50;99.90
24560;DHT22;12727;49.934;8.656;2024-01-16T14:46:55;1.40;99.90
24560;DHT22;12727;49.934;8.656;2024-01-16T14:49:20;1.30;99.90
24560;DHT22;12727;49.934;8.656;2024-01-16T14:51:46;1.30;99.90
24560;DHT22;12727;49.934;8.656;2024-01-16T14:54:12;1.30;99.90
24560;DHT22;12727;49.934;8.656;2024-01-16T14:56:37;1.50;99.90
24560;DHT22;12727;49.934;8.656;2024-01-16T14:59:03;1.60;99.90
24560;DHT22;12727;49.934;8.656;2024-01-16T15:01:29;1.50;99.90
24560;DHT22;12727;49.934;8.656;2024-01-16T15:03:54;1.50;99.90
24560;DHT22;12727;49.934;8.656;2024-01-16T15:06:20;1.40;99.90
24560;DHT22;12727;49.934;8.656;2024-01-16T15:08:46;1.30;99.90
24560;DHT22;12727;49.934;8.656;2024-01-16T15:11:13;1.30;99.90
24560;DHT22;12727;49.934;8.656;2024-01-16T15:13:39;1.40;99.90
24560;DHT22;12727;49.934;8.656;2024-01-16T15:16:05;1.30;99.90
24560;DHT22;12727;49.934;8.656;2024-01-16T15:18:30;1.30;99.90
24560;DHT22;12727;49.934;8.656;2024-01-16T15:20:56;1.30;99.90
24560;DHT22;12727;49.934;8.656;2024-01-16T15:23:21;1.20;99.90
24560;DHT22;12727;49.934;8.656;2024-01-16T15:25:48;1.20;99.90
24560;DHT22;12727;49.934;8.656;2024-01-16T15:28:14;1.10;99.90
24560;DHT22;12727;49.934;8.656;2024-01-16T15:30:39;1.00;99.90
24560;DHT22;12727;49.934;8.656;2024-01-16T15:33:05;1.00;99.90
24560;DHT22;12727;49.934;8.656;2024-01-16T15:35:31;1.00;99.90
24560;DHT22;12727;49.934;8.656;2024-01-16T15:37:57;1.10;99.90
24560;DHT22;12727;49.934;8.656;2024-01-16T15:40:22;1.20;99.90
24560;DHT22;12727;49.934;8.656;2024-01-16T15:42:51;1.20;99.90